sensor_id;sensor_type;location;lat;lon;timestamp;pressure;altitude;pressure_sealevel;temperature;humidity
55277;BME280;41136;51.478;-2.610;2024-03-02T00:01:39;97885.93;;;6.13;100.00
55277;BME280;41136;51.478;-2.610;2024-03-02T00:04:04;97884.80;;;5.89;100.00
55277;BME280;41136;51.478;-2.610;2024-03-02T00:06:29;97883.96;;;7.02;100.00
55277;BME280;41136;51.478;-2.610;2024-03-02T00:08:58;97887.31;;;6.23;100.00
55277;BME280;41136;51.478;-2.610;2024-03-02T00:11:20;97884.46;;;6.25;100.00
55277;BME280;41136;51.478;-2.610;2024-03-02T00:13:45;97883.21;;;6.56;100.00
55277;BME280;41136;51.478;-2.610;2024-03-02T00:16:11;97884.97;;;6.15;100.00
55277;BME280;41136;51.478;-2.610;2024-03-02T00:18:36;97887.33;;;5.68;100.00
55277;BME280;41136;51.478;-2.610;2024-03-02T00:21:02;97882.50;;;5.88;100.00
55277;BME280;41136;51.478;-2.610;2024-03-02T00:23:29;97882.21;;;5.77;100.00
55277;BME280;41136;51.478;-2.610;2024-03-02T00:25:54;97881.23;;;6.13;100.00
55277;BME280;41136;51.478;-2.610;2024-03-02T00:28:20;97882.80;;;5.58;100.00
55277;BME280;41136;51.478;-2.610;2024-03-02T00:30:54;97882.00;;;6.03;100.00
55277;BME280;41136;51.478;-2.610;2024-03-02T00:33:09;97884.90;;;6.01;100.00
55277;BME280;41136;51.478;-2.610;2024-03-02T00:35:34;97884.04;;;6.33;100.00
55277;BME280;41136;51.478;-2.610;2024-03-02T00:38:04;97880.94;;;6.01;100.00
55277;BME280;41136;51.478;-2.610;2024-03-02T00:40:28;97877.21;;;6.15;100.00
55277;BME280;41136;51.478;-2.610;2024-03-02T00:42:50;97871.59;;;6.09;100.00
55277;BME280;41136;51.478;-2.610;2024-03-02T00:45:16;97870.67;;;6.46;100.00
55277;BME280;41136;51.478;-2.610;2024-03-02T00:47:41;97868.53;;;5.85;100.00
55277;BME280;41136;51.478;-2.610;2024-03-02T00:50:07;97867.74;;;4.80;100.00
55277;BME280;41136;51.478;-2.610;2024-03-02T00:52:32;97862.54;;;5.50;100.00
55277;BME280;41136;51.478;-2.610;2024-03-02T00:54:57;97860.90;;;6.47;100.00
55277;BME280;41136;51.478;-2.610;2024-03-02T00:57:23;97856.80;;;5.87;100.00
55277;BME280;41136;51.478;-2.610;2024-03-02T00:59:48;97857.75;;;5.68;100.00
55277;BME280;41136;51.478;-2.610;2024-03-02T01:02:13;97851.84;;;5.75;100.00
55277;BME280;41136;51.478;-2.610;2024-03-02T01:12:22;97849.92;;;6.45;100.00
55277;BME280;41136;51.478;-2.610;2024-03-02T01:14:47;97845.92;;;6.06;100.00
55277;BME280;41136;51.478;-2.610;2024-03-02T01:17:12;97844.88;;;6.40;100.00
55277;BME280;41136;51.478;-2.610;2024-03-02T01:19:38;97844.75;;;6.19;100.00
55277;BME280;41136;51.478;-2.610;2024-03-02T01:22:03;97841.76;;;6.46;100.00
55277;BME280;41136;51.478;-2.610;2024-03-02T01:24:29;97839.59;;;6.34;100.00
55277;BME280;41136;51.478;-2.610;2024-03-02T01:26:54;97838.79;;;6.38;100.00
55277;BME280;41136;51.478;-2.610;2024-03-02T01:29:19;97837.65;;;6.48;100.00
55277;BME280;41136;51.478;-2.610;2024-03-02T01:31:45;97834.52;;;6.63;100.00
55277;BME280;41136;51.478;-2.610;2024-03-02T01:34:10;97839.81;;;4.68;100.00
55277;BME280;41136;51.478;-2.610;2024-03-02T01:36:36;97838.47;;;6.18;100.00
55277;BME280;41136;51.478;-2.610;2024-03-02T01:39:01;97836.66;;;6.15;100.00
55277;BME280;41136;51.478;-2.610;2024-03-02T01:41:27;97836.16;;;6.96;100.00
55277;BME280;41136;51.478;-2.610;2024-03-02T01:43:52;97840.20;;;6.38;100.00
55277;BME280;41136;51.478;-2.610;2024-03-02T01:46:17;97842.91;;;6.04;100.00
55277;BME280;41136;51.478;-2.610;2024-03-02T01:48:43;97844.57;;;6.64;100.00
55277;BME280;41136;51.478;-2.610;2024-03-02T01:51:08;97846.75;;;6.96;100.00
55277;BME280;41136;51.478;-2.610;2024-03-02T01:53:34;97843.96;;;6.83;100.00
55277;BME280;41136;51.478;-2.610;2024-03-02T01:55:59;97846.56;;;6.68;100.00
55277;BME280;41136;51.478;-2.610;2024-03-02T01:58:24;97843.79;;;6.49;100.00
55277;BME280;41136;51.478;-2.610;2024-03-02T02:00:50;97842.49;;;6.98;100.00
55277;BME280;41136;51.478;-2.610;2024-03-02T02:03:15;97842.51;;;7.43;100.00
55277;BME280;41136;51.478;-2.610;2024-03-02T02:05:42;97847.49;;;7.45;100.00
55277;BME280;41136;51.478;-2.610;2024-03-02T02:08:06;97847.32;;;7.38;100.00
55277;BME280;41136;51.478;-2.610;2024-03-02T02:10:31;97842.81;;;7.55;100.00
55277;BME280;41136;51.478;-2.610;2024-03-02T02:12:57;97843.81;;;7.51;100.00
55277;BME280;41136;51.478;-2.610;2024-03-02T02:15:23;97838.80;;;7.20;100.00
55277;BME280;41136;51.478;-2.610;2024-03-02T02:17:47;97841.36;;;7.35;100.00
55277;BME280;41136;51.478;-2.610;2024-03-02T02:20:13;97836.88;;;7.42;100.00
55277;BME280;41136;51.478;-2.610;2024-03-02T02:22:38;97832.73;;;7.43;100.00
55277;BME280;41136;51.478;-2.610;2024-03-02T02:25:04;97827.76;;;7.63;100.00
55277;BME280;41136;51.478;-2.610;2024-03-02T02:27:29;97826.36;;;7.25;100.00
55277;BME280;41136;51.478;-2.610;2024-03-02T02:29:55;97824.62;;;7.39;100.00
55277;BME280;41136;51.478;-2.610;2024-03-02T02:32:20;97818.79;;;7.50;100.00
55277;BME280;41136;51.478;-2.610;2024-03-02T02:34:45;97812.03;;;7.31;100.00
55277;BME280;41136;51.478;-2.610;2024-03-02T02:37:11;97806.06;;;7.44;100.00
55277;BME280;41136;51.478;-2.610;2024-03-02T02:39:36;97805.00;;;7.53;100.00
55277;BME280;41136;51.478;-2.610;2024-03-02T02:42:02;97802.94;;;7.81;100.00
55277;BME280;41136;51.478;-2.610;2024-03-02T02:44:27;97802.37;;;7.72;100.00
55277;BME280;41136;51.478;-2.610;2024-03-02T02:46:52;97800.71;;;7.86;100.00
55277;BME280;41136;51.478;-2.610;2024-03-02T02:49:18;97799.33;;;7.72;100.00
55277;BME280;41136;51.478;-2.610;2024-03-02T02:51:43;97794.81;;;7.79;100.00
55277;BME280;41136;51.478;-2.610;2024-03-02T02:54:09;97791.86;;;8.10;100.00
55277;BME280;41136;51.478;-2.610;2024-03-02T02:56:34;97789.86;;;8.06;100.00
55277;BME280;41136;51.478;-2.610;2024-03-02T02:58:59;97788.10;;;7.83;100.00
55277;BME280;41136;51.478;-2.610;2024-03-02T03:01:25;97784.00;;;7.77;100.00
55277;BME280;41136;51.478;-2.610;2024-03-02T03:03:50;97782.76;;;7.41;100.00
55277;BME280;41136;51.478;-2.610;2024-03-02T03:06:16;97776.14;;;6.85;100.00
55277;BME280;41136;51.478;-2.610;2024-03-02T03:08:41;97769.79;;;6.29;100.00
55277;BME280;41136;51.478;-2.610;2024-03-02T03:11:06;97765.82;;;6.73;100.00
55277;BME280;41136;51.478;-2.610;2024-03-02T03:13:33;97764.36;;;6.71;100.00
55277;BME280;41136;51.478;-2.610;2024-03-02T03:15:57;97759.51;;;6.73;100.00
55277;BME280;41136;51.478;-2.610;2024-03-02T03:18:23;97754.12;;;7.47;100.00
55277;BME280;41136;51.478;-2.610;2024-03-02T03:20:48;97751.28;;;7.33;100.00
55277;BME280;41136;51.478;-2.610;2024-03-02T03:23:13;97748.58;;;6.96;100.00
55277;BME280;41136;51.478;-2.610;2024-03-02T03:25:39;97743.74;;;6.56;100.00
55277;BME280;41136;51.478;-2.610;2024-03-02T03:28:04;97734.61;;;6.11;100.00
55277;BME280;41136;51.478;-2.610;2024-03-02T03:30:30;97734.64;;;5.85;100.00
55277;BME280;41136;51.478;-2.610;2024-03-02T03:32:55;97736.81;;;5.11;100.00
55277;BME280;41136;51.478;-2.610;2024-03-02T03:35:20;97736.12;;;4.30;100.00
55277;BME280;41136;51.478;-2.610;2024-03-02T03:37:46;97736.33;;;3.77;100.00
55277;BME280;41136;51.478;-2.610;2024-03-02T03:40:11;97728.78;;;3.78;100.00
55277;BME280;41136;51.478;-2.610;2024-03-02T03:42:37;97725.38;;;3.89;100.00
55277;BME280;41136;51.478;-2.610;2024-03-02T03:45:02;97720.67;;;2.70;100.00
55277;BME280;41136;51.478;-2.610;2024-03-02T03:47:27;97720.07;;;1.73;100.00
55277;BME280;41136;51.478;-2.610;2024-03-02T03:49:53;97720.56;;;1.93;100.00
55277;BME280;41136;51.478;-2.610;2024-03-02T03:52:19;97722.86;;;3.04;100.00
55277;BME280;41136;51.478;-2.610;2024-03-02T03:54:44;97717.28;;;1.69;100.00
55277;BME280;41136;51.478;-2.610;2024-03-02T03:57:10;97719.21;;;2.64;100.00
55277;BME280;41136;51.478;-2.610;2024-03-02T03:59:35;97716.66;;;1.85;100.00
55277;BME280;41136;51.478;-2.610;2024-03-02T04:02:06;97721.34;;;1.71;100.00
55277;BME280;41136;51.478;-2.610;2024-03-02T04:04:26;97725.22;;;2.35;100.00
55277;BME280;41136;51.478;-2.610;2024-03-02T04:06:51;97730.31;;;2.91;100.00
55277;BME280;41136;51.478;-2.610;2024-03-02T04:09:17;97730.05;;;1.53;100.00
55277;BME280;41136;51.478;-2.610;2024-03-02T04:11:43;97731.51;;;2.25;100.00
55277;BME280;41136;51.478;-2.610;2024-03-02T04:14:08;97729.02;;;1.62;100.00
55277;BME280;41136;51.478;-2.610;2024-03-02T04:16:33;97737.63;;;1.37;100.00
55277;BME280;41136;51.478;-2.610;2024-03-02T04:18:59;97739.07;;;2.48;100.00
55277;BME280;41136;51.478;-2.610;2024-03-02T04:21:24;97739.25;;;3.42;100.00
55277;BME280;41136;51.478;-2.610;2024-03-02T04:23:50;97741.06;;;1.50;100.00
55277;BME280;41136;51.478;-2.610;2024-03-02T04:26:15;97744.78;;;3.57;100.00
55277;BME280;41136;51.478;-2.610;2024-03-02T04:28:40;97745.45;;;4.43;100.00
55277;BME280;41136;51.478;-2.610;2024-03-02T04:31:06;97738.03;;;4.71;100.00
55277;BME280;41136;51.478;-2.610;2024-03-02T04:33:31;97740.52;;;5.41;100.00
55277;BME280;41136;51.478;-2.610;2024-03-02T04:35:57;97743.04;;;5.60;100.00
55277;BME280;41136;51.478;-2.610;2024-03-02T04:38:22;97740.22;;;6.09;100.00
55277;BME280;41136;51.478;-2.610;2024-03-02T04:40:48;97738.03;;;5.84;100.00
55277;BME280;41136;51.478;-2.610;2024-03-02T04:43:13;97738.92;;;5.79;100.00
55277;BME280;41136;51.478;-2.610;2024-03-02T04:45:38;97741.82;;;6.20;100.00
55277;BME280;41136;51.478;-2.610;2024-03-02T04:48:04;97745.49;;;6.13;100.00
55277;BME280;41136;51.478;-2.610;2024-03-02T04:50:29;97750.19;;;5.46;100.00
55277;BME280;41136;51.478;-2.610;2024-03-02T04:52:54;97748.80;;;5.12;100.00
55277;BME280;41136;51.478;-2.610;2024-03-02T04:55:20;97753.21;;;5.56;100.00
55277;BME280;41136;51.478;-2.610;2024-03-02T04:57:45;97754.55;;;5.18;100.00
55277;BME280;41136;51.478;-2.610;2024-03-02T05:00:11;97758.68;;;5.72;100.00
55277;BME280;41136;51.478;-2.610;2024-03-02T05:02:36;97761.90;;;5.53;100.00
55277;BME280;41136;51.478;-2.610;2024-03-02T05:05:02;97764.25;;;5.33;100.00
55277;BME280;41136;51.478;-2.610;2024-03-02T05:07:27;97764.26;;;5.44;100.00
55277;BME280;41136;51.478;-2.610;2024-03-02T05:09:52;97764.91;;;5.87;100.00
55277;BME280;41136;51.478;-2.610;2024-03-02T05:12:18;97763.81;;;5.45;100.00
55277;BME280;41136;51.478;-2.610;2024-03-02T05:29:24;97778.70;;;5.17;100.00
55277;BME280;41136;51.478;-2.610;2024-03-02T05:31:50;97783.30;;;5.26;99.62
55277;BME280;41136;51.478;-2.610;2024-03-02T05:34:15;97782.84;;;5.44;99.55
55277;BME280;41136;51.478;-2.610;2024-03-02T05:36:41;97784.82;;;4.32;100.00
55277;BME280;41136;51.478;-2.610;2024-03-02T05:39:06;97789.29;;;2.37;100.00
55277;BME280;41136;51.478;-2.610;2024-03-02T05:41:31;97783.26;;;1.75;100.00
55277;BME280;41136;51.478;-2.610;2024-03-02T05:43:57;97783.21;;;1.64;100.00
55277;BME280;41136;51.478;-2.610;2024-03-02T05:46:22;97782.94;;;-0.15;100.00
55277;BME280;41136;51.478;-2.610;2024-03-02T05:48:48;97781.65;;;-0.33;100.00
55277;BME280;41136;51.478;-2.610;2024-03-02T05:51:13;97785.60;;;-0.54;100.00
55277;BME280;41136;51.478;-2.610;2024-03-02T05:53:39;97787.65;;;0.11;100.00
55277;BME280;41136;51.478;-2.610;2024-03-02T05:56:04;97790.64;;;0.39;100.00
55277;BME280;41136;51.478;-2.610;2024-03-02T05:58:30;97793.63;;;0.72;100.00
55277;BME280;41136;51.478;-2.610;2024-03-02T06:00:55;97794.78;;;0.14;100.00
55277;BME280;41136;51.478;-2.610;2024-03-02T06:03:21;97797.26;;;-0.34;100.00
55277;BME280;41136;51.478;-2.610;2024-03-02T06:05:46;97798.78;;;0.73;100.00
55277;BME280;41136;51.478;-2.610;2024-03-02T06:08:11;97804.08;;;0.54;100.00
55277;BME280;41136;51.478;-2.610;2024-03-02T06:10:37;97800.53;;;0.29;100.00
55277;BME280;41136;51.478;-2.610;2024-03-02T06:13:03;97802.01;;;0.38;100.00
55277;BME280;41136;51.478;-2.610;2024-03-02T06:15:28;97799.71;;;1.20;100.00
55277;BME280;41136;51.478;-2.610;2024-03-02T06:17:53;97802.83;;;0.75;100.00
55277;BME280;41136;51.478;-2.610;2024-03-02T06:20:19;97802.45;;;0.67;100.00
55277;BME280;41136;51.478;-2.610;2024-03-02T06:22:44;97806.57;;;1.75;100.00
55277;BME280;41136;51.478;-2.610;2024-03-02T06:25:10;97808.06;;;-0.11;100.00
55277;BME280;41136;51.478;-2.610;2024-03-02T06:40:10;97806.34;;;1.71;100.00
55277;BME280;41136;51.478;-2.610;2024-03-02T06:42:36;97813.77;;;0.83;100.00
55277;BME280;41136;51.478;-2.610;2024-03-02T06:45:01;97812.44;;;1.18;100.00
55277;BME280;41136;51.478;-2.610;2024-03-02T06:47:26;97812.59;;;0.76;100.00
55277;BME280;41136;51.478;-2.610;2024-03-02T06:49:52;97819.00;;;1.44;100.00
55277;BME280;41136;51.478;-2.610;2024-03-02T06:52:17;97822.24;;;1.22;100.00
55277;BME280;41136;51.478;-2.610;2024-03-02T06:54:43;97820.73;;;0.83;100.00
55277;BME280;41136;51.478;-2.610;2024-03-02T06:57:08;97824.13;;;1.28;100.00
55277;BME280;41136;51.478;-2.610;2024-03-02T06:59:34;97826.67;;;0.29;100.00
55277;BME280;41136;51.478;-2.610;2024-03-02T07:01:59;97831.77;;;1.07;100.00
55277;BME280;41136;51.478;-2.610;2024-03-02T07:04:25;97830.06;;;1.11;100.00
55277;BME280;41136;51.478;-2.610;2024-03-02T07:06:50;97837.22;;;0.73;100.00
55277;BME280;41136;51.478;-2.610;2024-03-02T07:09:15;97839.51;;;1.34;100.00
55277;BME280;41136;51.478;-2.610;2024-03-02T07:11:41;97842.98;;;1.69;100.00
55277;BME280;41136;51.478;-2.610;2024-03-02T07:14:06;97845.78;;;1.76;100.00
55277;BME280;41136;51.478;-2.610;2024-03-02T07:16:32;97848.78;;;1.90;100.00
55277;BME280;41136;51.478;-2.610;2024-03-02T07:18:57;97849.02;;;2.18;100.00
55277;BME280;41136;51.478;-2.610;2024-03-02T07:21:23;97853.93;;;1.53;100.00
55277;BME280;41136;51.478;-2.610;2024-03-02T07:23:48;97854.39;;;2.45;100.00
55277;BME280;41136;51.478;-2.610;2024-03-02T07:26:14;97855.15;;;2.82;100.00
55277;BME280;41136;51.478;-2.610;2024-03-02T07:28:39;97853.62;;;3.07;100.00
55277;BME280;41136;51.478;-2.610;2024-03-02T07:31:05;97861.00;;;3.46;100.00
55277;BME280;41136;51.478;-2.610;2024-03-02T07:33:30;97859.94;;;2.74;100.00
55277;BME280;41136;51.478;-2.610;2024-03-02T07:35:56;97862.65;;;2.32;100.00
55277;BME280;41136;51.478;-2.610;2024-03-02T07:38:21;97862.73;;;3.22;100.00
55277;BME280;41136;51.478;-2.610;2024-03-02T07:40:47;97867.77;;;3.66;100.00
55277;BME280;41136;51.478;-2.610;2024-03-02T07:43:12;97865.02;;;3.60;100.00
55277;BME280;41136;51.478;-2.610;2024-03-02T07:45:37;97869.51;;;3.99;100.00
55277;BME280;41136;51.478;-2.610;2024-03-02T07:48:03;97873.05;;;4.58;100.00
55277;BME280;41136;51.478;-2.610;2024-03-02T07:50:28;97879.29;;;4.18;100.00
55277;BME280;41136;51.478;-2.610;2024-03-02T07:52:54;97875.76;;;4.49;100.00
55277;BME280;41136;51.478;-2.610;2024-03-02T07:55:19;97882.56;;;3.85;100.00
55277;BME280;41136;51.478;-2.610;2024-03-02T07:57:44;97881.65;;;3.24;100.00
55277;BME280;41136;51.478;-2.610;2024-03-02T08:00:11;97881.60;;;3.10;100.00
55277;BME280;41136;51.478;-2.610;2024-03-02T08:02:35;97880.52;;;3.06;100.00
55277;BME280;41136;51.478;-2.610;2024-03-02T08:05:01;97886.98;;;3.34;100.00
55277;BME280;41136;51.478;-2.610;2024-03-02T08:07:26;97890.16;;;3.19;100.00
55277;BME280;41136;51.478;-2.610;2024-03-02T08:09:51;97890.29;;;3.11;100.00
55277;BME280;41136;51.478;-2.610;2024-03-02T08:12:17;97893.76;;;3.64;100.00
55277;BME280;41136;51.478;-2.610;2024-03-02T08:14:42;97897.32;;;3.82;100.00
55277;BME280;41136;51.478;-2.610;2024-03-02T08:17:08;97898.82;;;2.92;100.00
55277;BME280;41136;51.478;-2.610;2024-03-02T08:19:33;97900.65;;;2.76;100.00
55277;BME280;41136;51.478;-2.610;2024-03-02T08:21:59;97900.49;;;3.12;100.00
55277;BME280;41136;51.478;-2.610;2024-03-02T08:24:24;97912.19;;;2.18;100.00
55277;BME280;41136;51.478;-2.610;2024-03-02T08:26:49;97912.54;;;1.74;100.00
55277;BME280;41136;51.478;-2.610;2024-03-02T08:29:15;97918.47;;;0.85;100.00
55277;BME280;41136;51.478;-2.610;2024-03-02T08:31:40;97923.32;;;1.86;100.00
55277;BME280;41136;51.478;-2.610;2024-03-02T08:34:06;97921.18;;;1.95;100.00
55277;BME280;41136;51.478;-2.610;2024-03-02T08:36:31;97929.95;;;1.26;100.00
55277;BME280;41136;51.478;-2.610;2024-03-02T08:38:57;97933.32;;;1.40;100.00
55277;BME280;41136;51.478;-2.610;2024-03-02T08:41:22;97935.04;;;1.56;100.00
55277;BME280;41136;51.478;-2.610;2024-03-02T08:43:48;97937.59;;;1.04;100.00
55277;BME280;41136;51.478;-2.610;2024-03-02T08:46:13;97945.25;;;0.38;100.00
55277;BME280;41136;51.478;-2.610;2024-03-02T08:48:39;97947.81;;;0.94;100.00
55277;BME280;41136;51.478;-2.610;2024-03-02T08:51:04;97948.47;;;0.93;100.00
55277;BME280;41136;51.478;-2.610;2024-03-02T08:53:29;97951.23;;;0.81;100.00
55277;BME280;41136;51.478;-2.610;2024-03-02T08:55:55;97948.64;;;1.10;100.00
55277;BME280;41136;51.478;-2.610;2024-03-02T08:58:20;97956.61;;;0.44;100.00
55277;BME280;41136;51.478;-2.610;2024-03-02T09:00:46;97950.57;;;1.40;100.00
55277;BME280;41136;51.478;-2.610;2024-03-02T09:03:12;97954.05;;;1.28;100.00
55277;BME280;41136;51.478;-2.610;2024-03-02T09:05:37;97953.47;;;1.69;100.00
55277;BME280;41136;51.478;-2.610;2024-03-02T09:08:04;97954.77;;;0.73;100.00
55277;BME280;41136;51.478;-2.610;2024-03-02T09:10:27;97959.62;;;1.20;100.00
55277;BME280;41136;51.478;-2.610;2024-03-02T09:12:53;97958.98;;;1.72;100.00
55277;BME280;41136;51.478;-2.610;2024-03-02T09:15:18;97959.96;;;2.01;100.00
55277;BME280;41136;51.478;-2.610;2024-03-02T09:17:44;97959.65;;;1.99;100.00
55277;BME280;41136;51.478;-2.610;2024-03-02T09:20:10;97963.75;;;1.57;100.00
55277;BME280;41136;51.478;-2.610;2024-03-02T09:22:35;97965.05;;;1.34;100.00
55277;BME280;41136;51.478;-2.610;2024-03-02T09:25:00;97967.88;;;1.15;100.00
55277;BME280;41136;51.478;-2.610;2024-03-02T09:27:25;97969.50;;;1.10;100.00
55277;BME280;41136;51.478;-2.610;2024-03-02T09:29:51;97974.66;;;0.68;100.00
55277;BME280;41136;51.478;-2.610;2024-03-02T09:32:16;97978.51;;;0.67;100.00
55277;BME280;41136;51.478;-2.610;2024-03-02T09:34:42;97980.93;;;1.64;100.00
55277;BME280;41136;51.478;-2.610;2024-03-02T09:37:07;97983.80;;;1.32;100.00
55277;BME280;41136;51.478;-2.610;2024-03-02T09:39:33;97984.17;;;1.61;100.00
55277;BME280;41136;51.478;-2.610;2024-03-02T09:41:59;97982.97;;;2.24;100.00
55277;BME280;41136;51.478;-2.610;2024-03-02T09:44:24;97985.22;;;2.24;100.00
55277;BME280;41136;51.478;-2.610;2024-03-02T09:46:49;97981.79;;;2.07;100.00
55277;BME280;41136;51.478;-2.610;2024-03-02T09:49:14;97980.46;;;2.13;100.00
55277;BME280;41136;51.478;-2.610;2024-03-02T09:51:40;97980.65;;;2.28;100.00
55277;BME280;41136;51.478;-2.610;2024-03-02T09:54:07;97981.78;;;2.15;100.00
55277;BME280;41136;51.478;-2.610;2024-03-02T09:56:31;97983.10;;;2.75;100.00
55277;BME280;41136;51.478;-2.610;2024-03-02T09:58:56;97981.76;;;2.59;100.00
55277;BME280;41136;51.478;-2.610;2024-03-02T10:01:21;97986.39;;;2.62;100.00
55277;BME280;41136;51.478;-2.610;2024-03-02T10:03:47;97988.75;;;2.90;100.00
55277;BME280;41136;51.478;-2.610;2024-03-02T10:06:18;97987.78;;;2.75;100.00
55277;BME280;41136;51.478;-2.610;2024-03-02T10:08:43;97984.96;;;3.51;100.00
55277;BME280;41136;51.478;-2.610;2024-03-02T10:11:03;97989.55;;;3.09;100.00
55277;BME280;41136;51.478;-2.610;2024-03-02T10:13:29;97992.12;;;4.04;100.00
55277;BME280;41136;51.478;-2.610;2024-03-02T10:15:54;97991.27;;;3.88;100.00
55277;BME280;41136;51.478;-2.610;2024-03-02T10:18:26;97992.57;;;4.32;100.00
55277;BME280;41136;51.478;-2.610;2024-03-02T10:20:45;97998.02;;;4.21;100.00
55277;BME280;41136;51.478;-2.610;2024-03-02T10:23:12;97995.85;;;4.10;100.00
55277;BME280;41136;51.478;-2.610;2024-03-02T10:25:36;97994.89;;;3.57;100.00
55277;BME280;41136;51.478;-2.610;2024-03-02T10:28:01;98000.01;;;3.65;100.00
55277;BME280;41136;51.478;-2.610;2024-03-02T10:30:28;98005.51;;;4.46;100.00
55277;BME280;41136;51.478;-2.610;2024-03-02T10:32:53;98013.35;;;4.56;100.00
55277;BME280;41136;51.478;-2.610;2024-03-02T10:35:17;98015.21;;;4.43;100.00
55277;BME280;41136;51.478;-2.610;2024-03-02T10:42:34;98016.23;;;5.02;100.00
55277;BME280;41136;51.478;-2.610;2024-03-02T10:44:59;98017.16;;;3.94;100.00
55277;BME280;41136;51.478;-2.610;2024-03-02T10:47:26;98016.37;;;3.90;100.00
55277;BME280;41136;51.478;-2.610;2024-03-02T10:49:51;98018.28;;;3.90;100.00
55277;BME280;41136;51.478;-2.610;2024-03-02T10:52:15;98019.68;;;3.58;100.00
55277;BME280;41136;51.478;-2.610;2024-03-02T10:54:41;98026.93;;;3.19;100.00
55277;BME280;41136;51.478;-2.610;2024-03-02T10:57:07;98035.52;;;2.33;100.00
55277;BME280;41136;51.478;-2.610;2024-03-02T10:59:34;98034.86;;;3.00;100.00
55277;BME280;41136;51.478;-2.610;2024-03-02T11:01:58;98041.99;;;2.19;100.00
55277;BME280;41136;51.478;-2.610;2024-03-02T11:04:24;98045.37;;;1.79;100.00
55277;BME280;41136;51.478;-2.610;2024-03-02T11:06:49;98047.61;;;1.72;100.00
55277;BME280;41136;51.478;-2.610;2024-03-02T11:09:14;98054.54;;;2.54;100.00
55277;BME280;41136;51.478;-2.610;2024-03-02T11:11:42;98057.21;;;2.43;100.00
55277;BME280;41136;51.478;-2.610;2024-03-02T11:14:06;98058.06;;;3.10;100.00
55277;BME280;41136;51.478;-2.610;2024-03-02T11:16:33;98060.75;;;3.57;100.00
55277;BME280;41136;51.478;-2.610;2024-03-02T11:18:55;98064.73;;;3.21;100.00
55277;BME280;41136;51.478;-2.610;2024-03-02T11:21:20;98063.70;;;2.75;100.00
55277;BME280;41136;51.478;-2.610;2024-03-02T11:23:46;98070.50;;;3.34;100.00
55277;BME280;41136;51.478;-2.610;2024-03-02T11:26:17;98070.66;;;3.46;100.00
55277;BME280;41136;51.478;-2.610;2024-03-02T11:28:36;98069.44;;;3.43;100.00
55277;BME280;41136;51.478;-2.610;2024-03-02T11:31:02;98071.19;;;3.07;100.00
55277;BME280;41136;51.478;-2.610;2024-03-02T11:33:27;98075.01;;;3.45;100.00
55277;BME280;41136;51.478;-2.610;2024-03-02T11:35:53;98077.16;;;3.33;100.00
55277;BME280;41136;51.478;-2.610;2024-03-02T11:38:18;98075.22;;;3.79;100.00
55277;BME280;41136;51.478;-2.610;2024-03-02T11:40:43;98080.15;;;3.96;100.00
55277;BME280;41136;51.478;-2.610;2024-03-02T11:43:09;98083.12;;;3.96;100.00
55277;BME280;41136;51.478;-2.610;2024-03-02T11:45:35;98081.54;;;3.55;100.00
55277;BME280;41136;51.478;-2.610;2024-03-02T11:48:00;98085.33;;;4.52;100.00
55277;BME280;41136;51.478;-2.610;2024-03-02T11:50:30;98086.03;;;4.65;100.00
55277;BME280;41136;51.478;-2.610;2024-03-02T11:52:51;98086.72;;;4.37;100.00
55277;BME280;41136;51.478;-2.610;2024-03-02T11:55:16;98088.24;;;4.89;100.00
55277;BME280;41136;51.478;-2.610;2024-03-02T11:57:41;98089.84;;;4.72;100.00
55277;BME280;41136;51.478;-2.610;2024-03-02T12:00:16;98093.43;;;5.64;100.00
55277;BME280;41136;51.478;-2.610;2024-03-02T12:02:32;98090.98;;;5.42;100.00
55277;BME280;41136;51.478;-2.610;2024-03-02T12:04:58;98089.69;;;5.18;100.00
55277;BME280;41136;51.478;-2.610;2024-03-02T12:07:23;98092.18;;;5.10;100.00
55277;BME280;41136;51.478;-2.610;2024-03-02T12:09:48;98091.30;;;4.14;100.00
55277;BME280;41136;51.478;-2.610;2024-03-02T12:12:14;98092.70;;;4.24;100.00
55277;BME280;41136;51.478;-2.610;2024-03-02T12:14:39;98093.01;;;4.21;100.00
55277;BME280;41136;51.478;-2.610;2024-03-02T12:17:05;98094.53;;;4.87;100.00
55277;BME280;41136;51.478;-2.610;2024-03-02T12:19:31;98096.14;;;4.85;100.00
55277;BME280;41136;51.478;-2.610;2024-03-02T12:21:56;98096.87;;;5.10;100.00
55277;BME280;41136;51.478;-2.610;2024-03-02T12:24:21;98097.50;;;5.39;100.00
55277;BME280;41136;51.478;-2.610;2024-03-02T12:26:46;98101.99;;;4.31;100.00
55277;BME280;41136;51.478;-2.610;2024-03-02T12:29:13;98101.78;;;4.57;100.00
55277;BME280;41136;51.478;-2.610;2024-03-02T12:31:37;98102.82;;;4.61;100.00
55277;BME280;41136;51.478;-2.610;2024-03-02T12:34:03;98103.61;;;4.48;100.00
55277;BME280;41136;51.478;-2.610;2024-03-02T12:36:28;98108.77;;;4.46;100.00
55277;BME280;41136;51.478;-2.610;2024-03-02T12:38:53;98112.18;;;3.49;100.00
55277;BME280;41136;51.478;-2.610;2024-03-02T12:48:20;98114.65;;;3.78;100.00
55277;BME280;41136;51.478;-2.610;2024-03-02T12:50:46;98119.36;;;2.81;100.00
55277;BME280;41136;51.478;-2.610;2024-03-02T12:53:14;98125.79;;;2.45;100.00
55277;BME280;41136;51.478;-2.610;2024-03-02T12:55:37;98124.46;;;2.62;100.00
55277;BME280;41136;51.478;-2.610;2024-03-02T12:58:02;98133.44;;;3.37;100.00
55277;BME280;41136;51.478;-2.610;2024-03-02T13:00:27;98132.66;;;3.66;100.00
55277;BME280;41136;51.478;-2.610;2024-03-02T13:02:53;98138.78;;;2.91;100.00
55277;BME280;41136;51.478;-2.610;2024-03-02T13:05:18;98139.93;;;3.58;100.00
55277;BME280;41136;51.478;-2.610;2024-03-02T13:07:44;98141.32;;;3.72;100.00
55277;BME280;41136;51.478;-2.610;2024-03-02T13:10:09;98145.03;;;3.44;100.00
55277;BME280;41136;51.478;-2.610;2024-03-02T13:12:35;98146.63;;;3.35;100.00
55277;BME280;41136;51.478;-2.610;2024-03-02T13:15:00;98148.84;;;3.54;100.00
55277;BME280;41136;51.478;-2.610;2024-03-02T13:17:25;98151.74;;;2.87;100.00
55277;BME280;41136;51.478;-2.610;2024-03-02T13:19:52;98153.35;;;2.61;100.00
55277;BME280;41136;51.478;-2.610;2024-03-02T13:22:16;98156.94;;;2.63;100.00
55277;BME280;41136;51.478;-2.610;2024-03-02T13:24:42;98156.13;;;2.73;100.00
55277;BME280;41136;51.478;-2.610;2024-03-02T13:27:07;98151.24;;;2.90;100.00